TimeAKDT,TemperatureF,Dew PointF,Humidity,Sea Level PressureIn,VisibilityMPH,Wind Direction,Wind SpeedMPH,Gust SpeedMPH,PrecipitationIn,Events,Conditions,WindDirDegrees,DateUTC
12:54 AM,37.9,33.1,83,30.09,10.0,WNW,13.8,-,N/A,,Overcast,290,2013-10-23 08:54:00
1:54 AM,37.9,34.0,86,30.08,10.0,WNW,10.4,-,0.00,Rain,Light Rain,300,2013-10-23 09:54:00
2:25 AM,37.4,33.8,87,30.07,10.0,NW,11.5,-,0.01,Rain,Light Rain,310,2013-10-23 10:25:00
2:54 AM,37.0,34.0,89,30.07,9.0,WNW,12.7,-,0.03,Rain,Light Rain,300,2013-10-23 10:54:00
3:54 AM,37.9,35.1,89,30.05,9.0,NW,11.5,-,0.03,Rain,Light Rain,320,2013-10-23 11:54:00
4:54 AM,37.0,35.1,93,30.02,7.0,NW,9.2,-,0.06,Rain,Light Rain,310,2013-10-23 12:54:00
5:54 AM,36.0,34.0,93,29.99,5.0,NW,11.5,-,0.11,Rain,Rain,310,2013-10-23 13:54:00
6:54 AM,35.1,33.1,92,29.97,6.0,WNW,9.2,-,0.09,Rain,Rain,290,2013-10-23 14:54:00
7:54 AM,34.0,33.1,96,29.95,6.0,WNW,10.4,-,0.09,Rain,Rain,290,2013-10-23 15:54:00
8:54 AM,35.1,33.1,92,29.91,5.0,WNW,8.1,-,0.14,Rain,Rain,290,2013-10-23 16:54:00
9:13 AM,33.8,32.0,93,29.90,6.0,WNW,11.5,-,0.03,Rain,Rain,290,2013-10-23 17:13:00
9:54 AM,34.0,33.1,96,29.88,5.0,WNW,8.1,-,0.12,Rain,Rain,290,2013-10-23 17:54:00
10:54 AM,34.0,33.1,96,29.88,4.0,WNW,9.2,-,0.09,Rain,Rain,290,2013-10-23 18:54:00
11:17 AM,33.8,33.8,100,29.85,2.5,Calm,Calm,-,0.03,Rain,Rain,0,2013-10-23 19:17:00
11:26 AM,33.8,33.8,100,29.83,2.5,Calm,Calm,-,0.05,Rain,Rain,0,2013-10-23 19:26:00
11:45 AM,35.6,33.8,93,29.84,3.0,NW,4.6,-,0.08,Rain,Rain,320,2013-10-23 19:45:00
11:54 AM,36.0,35.1,97,29.84,4.0,NW,5.8,-,0.09,Rain,Light Rain,320,2013-10-23 19:54:00
12:28 PM,35.6,33.8,93,29.79,2.5,Calm,Calm,-,0.06,Rain,Rain,0,2013-10-23 20:28:00
12:36 PM,35.6,33.8,93,29.80,1.8,Calm,Calm,-,0.07,Rain,Rain,0,2013-10-23 20:36:00
12:46 PM,35.6,33.8,93,29.79,2.0,ENE,3.5,-,0.09,Rain,Rain,70,2013-10-23 20:46:00
12:54 PM,36.0,35.1,97,29.78,2.5,SE,6.9,-,0.11,Rain,Rain,130,2013-10-23 20:54:00
1:45 PM,37.4,37.4,100,29.76,3.0,Variable,3.5,-,0.11,Rain,Rain,0,2013-10-23 21:45:00
1:54 PM,37.9,37.0,97,29.75,4.0,East,5.8,-,0.12,Rain,Rain,90,2013-10-23 21:54:00
2:13 PM,37.4,37.4,100,29.73,2.5,Calm,Calm,-,0.04,Rain,Rain,0,2013-10-23 22:13:00
2:27 PM,37.4,37.4,100,29.73,2.5,WNW,4.6,-,0.06,Rain,Rain,290,2013-10-23 22:27:00
2:41 PM,35.6,33.8,93,29.73,3.0,WNW,12.7,-,0.09,Rain,Rain,300,2013-10-23 22:41:00
2:54 PM,35.1,34.0,96,29.75,4.0,WNW,9.2,-,0.11,Rain,Rain,300,2013-10-23 22:54:00
3:08 PM,35.6,33.8,93,29.74,2.5,West,11.5,-,0.04,Rain,Heavy Rain,280,2013-10-23 23:08:00
3:23 PM,33.8,33.8,100,29.74,2.0,West,10.4,-,0.10,Rain,Heavy Rain,280,2013-10-23 23:23:00
3:44 PM,35.6,33.8,93,29.75,3.0,West,10.4,-,0.17,Rain,Heavy Rain,280,2013-10-23 23:44:00
3:54 PM,35.1,34.0,96,29.75,2.5,West,6.9,-,0.21,Rain,Heavy Rain,280,2013-10-23 23:54:00
4:46 PM,35.6,35.6,100,29.70,3.0,Calm,Calm,-,0.18,Rain,Rain,0,2013-10-24 00:46:00
4:54 PM,36.0,35.1,97,29.71,4.0,ESE,3.5,-,0.19,Rain,Light Rain,120,2013-10-24 00:54:00
5:12 PM,37.4,35.6,93,29.69,4.0,South,4.6,-,0.01,Rain,Light Rain,170,2013-10-24 01:12:00
5:22 PM,37.4,35.6,93,29.69,2.5,Calm,Calm,-,0.02,Rain,Light Rain,0,2013-10-24 01:22:00
5:34 PM,35.6,35.6,100,29.69,1.8,WSW,3.5,-,0.03,Rain,Light Rain,250,2013-10-24 01:34:00
5:42 PM,35.6,33.8,93,29.69,3.0,West,5.8,-,0.04,Rain,Light Rain,280,2013-10-24 01:42:00
5:54 PM,35.1,35.1,100,29.69,3.0,Variable,5.8,-,0.05,Rain,Light Rain,0,2013-10-24 01:54:00
6:24 PM,37.4,37.4,100,29.66,4.0,Variable,4.6,-,0.02,Rain,Light Rain,0,2013-10-24 02:24:00
6:54 PM,48.0,46.0,93,29.65,6.0,East,18.4,28.8,0.04,Rain,Light Rain,100,2013-10-24 02:54:00
7:51 PM,48.2,46.4,93,29.66,4.0,ESE,17.3,28.8,0.03,Rain,Light Rain,110,2013-10-24 03:51:00
7:54 PM,48.9,46.9,93,29.67,4.0,ESE,17.3,32.2,0.03,Rain,Light Rain,120,2013-10-24 03:54:00
8:39 PM,48.2,46.4,93,29.68,4.0,ESE,16.1,27.6,0.04,Rain,Light Rain,110,2013-10-24 04:39:00
8:54 PM,48.9,46.9,93,29.70,5.0,ESE,13.8,32.2,0.05,Rain,Light Rain,110,2013-10-24 04:54:00
9:22 PM,48.2,46.4,93,29.70,4.0,ESE,17.3,33.4,0.02,Rain,Light Rain,110,2013-10-24 05:22:00
9:42 PM,48.2,46.4,93,29.72,5.0,ESE,15.0,32.2,0.03,Rain,Light Rain,110,2013-10-24 05:42:00
9:54 PM,48.9,46.9,93,29.73,6.0,ESE,15.0,33.4,0.04,Rain,Light Rain,110,2013-10-24 05:54:00
10:04 PM,48.2,46.4,93,29.72,6.0,ESE,17.3,28.8,0.00,Rain,Light Rain,110,2013-10-24 06:04:00
10:23 PM,48.2,46.4,93,29.72,8.0,East,16.1,28.8,0.00,Rain,Light Rain,100,2013-10-24 06:23:00
10:54 PM,48.9,46.9,93,29.76,10.0,ESE,15.0,27.6,0.01,Rain,Light Rain,110,2013-10-24 06:54:00
11:54 PM,48.9,46.0,90,29.81,10.0,East,10.4,19.6,0.00,,Overcast,100,2013-10-24 07:54:00